sensor_id;sensor_type;location;lat;lon;timestamp;P1;durP1;ratioP1;P2;durP2;ratioP2
28304;SDS011;15569;42.652;23.040;2023-06-22T00:01:03;14.00;;;7.63;;
28304;SDS011;15569;42.652;23.040;2023-06-22T00:03:29;15.63;;;7.47;;
28304;SDS011;15569;42.652;23.040;2023-06-22T00:05:54;16.52;;;7.07;;
28304;SDS011;15569;42.652;23.040;2023-06-22T00:08:19;9.00;;;6.55;;
28304;SDS011;15569;42.652;23.040;2023-06-22T00:10:45;10.98;;;7.80;;
28304;SDS011;15569;42.652;23.040;2023-06-22T00:13:11;9.40;;;6.72;;
28304;SDS011;15569;42.652;23.040;2023-06-22T00:15:38;9.20;;;6.80;;
28304;SDS011;15569;42.652;23.040;2023-06-22T00:18:08;9.65;;;7.50;;
28304;SDS011;15569;42.652;23.040;2023-06-22T00:20:34;9.77;;;8.00;;
28304;SDS011;15569;42.652;23.040;2023-06-22T00:23:02;10.77;;;7.43;;
28304;SDS011;15569;42.652;23.040;2023-06-22T00:25:33;13.48;;;7.50;;
28304;SDS011;15569;42.652;23.040;2023-06-22T00:28:03;12.38;;;7.65;;
28304;SDS011;15569;42.652;23.040;2023-06-22T00:30:29;12.43;;;7.30;;
28304;SDS011;15569;42.652;23.040;2023-06-22T00:32:55;10.90;;;7.55;;
28304;SDS011;15569;42.652;23.040;2023-06-22T00:35:21;10.95;;;7.20;;
28304;SDS011;15569;42.652;23.040;2023-06-22T00:37:46;11.98;;;7.05;;
28304;SDS011;15569;42.652;23.040;2023-06-22T00:40:12;13.43;;;7.55;;
28304;SDS011;15569;42.652;23.040;2023-06-22T00:42:38;16.73;;;7.78;;
28304;SDS011;15569;42.652;23.040;2023-06-22T00:45:04;10.38;;;7.78;;
28304;SDS011;15569;42.652;23.040;2023-06-22T00:47:30;11.90;;;7.60;;
28304;SDS011;15569;42.652;23.040;2023-06-22T00:49:57;11.65;;;7.85;;
28304;SDS011;15569;42.652;23.040;2023-06-22T00:52:23;12.80;;;7.97;;
28304;SDS011;15569;42.652;23.040;2023-06-22T00:54:54;10.95;;;7.60;;
28304;SDS011;15569;42.652;23.040;2023-06-22T00:57:20;12.98;;;8.20;;
28304;SDS011;15569;42.652;23.040;2023-06-22T00:59:47;17.13;;;7.47;;
28304;SDS011;15569;42.652;23.040;2023-06-22T01:02:13;17.88;;;8.13;;
28304;SDS011;15569;42.652;23.040;2023-06-22T01:04:39;14.95;;;8.10;;
28304;SDS011;15569;42.652;23.040;2023-06-22T01:09:44;13.10;;;7.93;;
28304;SDS011;15569;42.652;23.040;2023-06-22T01:12:15;15.98;;;9.00;;
28304;SDS011;15569;42.652;23.040;2023-06-22T01:14:43;11.82;;;7.65;;
28304;SDS011;15569;42.652;23.040;2023-06-22T01:17:15;13.27;;;7.75;;
28304;SDS011;15569;42.652;23.040;2023-06-22T01:19:45;11.70;;;7.70;;
28304;SDS011;15569;42.652;23.040;2023-06-22T01:22:14;11.88;;;7.25;;
28304;SDS011;15569;42.652;23.040;2023-06-22T01:27:28;13.40;;;7.55;;
28304;SDS011;15569;42.652;23.040;2023-06-22T01:29:58;10.38;;;7.38;;
28304;SDS011;15569;42.652;23.040;2023-06-22T01:32:31;14.13;;;6.95;;
28304;SDS011;15569;42.652;23.040;2023-06-22T01:34:58;14.93;;;8.07;;
28304;SDS011;15569;42.652;23.040;2023-06-22T01:37:26;13.50;;;7.35;;
28304;SDS011;15569;42.652;23.040;2023-06-22T01:39:53;12.13;;;6.85;;
28304;SDS011;15569;42.652;23.040;2023-06-22T01:42:20;13.25;;;7.30;;
28304;SDS011;15569;42.652;23.040;2023-06-22T01:44:46;15.55;;;8.25;;
28304;SDS011;15569;42.652;23.040;2023-06-22T01:47:12;17.00;;;8.13;;
28304;SDS011;15569;42.652;23.040;2023-06-22T01:49:39;13.35;;;7.68;;
28304;SDS011;15569;42.652;23.040;2023-06-22T01:52:06;10.93;;;7.38;;
28304;SDS011;15569;42.652;23.040;2023-06-22T01:54:32;12.98;;;7.78;;
28304;SDS011;15569;42.652;23.040;2023-06-22T01:56:57;15.70;;;8.18;;
28304;SDS011;15569;42.652;23.040;2023-06-22T01:59:30;19.60;;;9.45;;
28304;SDS011;15569;42.652;23.040;2023-06-22T02:02:04;14.13;;;8.07;;
28304;SDS011;15569;42.652;23.040;2023-06-22T02:04:44;13.93;;;8.18;;
28304;SDS011;15569;42.652;23.040;2023-06-22T02:07:14;14.13;;;7.18;;
28304;SDS011;15569;42.652;23.040;2023-06-22T02:09:45;10.50;;;7.65;;
28304;SDS011;15569;42.652;23.040;2023-06-22T02:12:15;13.85;;;7.53;;
28304;SDS011;15569;42.652;23.040;2023-06-22T02:14:43;16.60;;;8.30;;
28304;SDS011;15569;42.652;23.040;2023-06-22T02:17:11;14.40;;;7.93;;
28304;SDS011;15569;42.652;23.040;2023-06-22T02:19:37;11.23;;;7.30;;
28304;SDS011;15569;42.652;23.040;2023-06-22T02:22:04;12.57;;;7.13;;
28304;SDS011;15569;42.652;23.040;2023-06-22T02:24:29;12.10;;;7.30;;
28304;SDS011;15569;42.652;23.040;2023-06-22T02:27:00;11.10;;;7.03;;
28304;SDS011;15569;42.652;23.040;2023-06-22T02:29:26;12.13;;;6.78;;
28304;SDS011;15569;42.652;23.040;2023-06-22T02:31:53;10.73;;;7.38;;
28304;SDS011;15569;42.652;23.040;2023-06-22T02:34:19;12.40;;;7.22;;
28304;SDS011;15569;42.652;23.040;2023-06-22T02:36:45;12.32;;;7.32;;
28304;SDS011;15569;42.652;23.040;2023-06-22T02:39:24;10.70;;;7.03;;
28304;SDS011;15569;42.652;23.040;2023-06-22T02:41:53;9.30;;;6.88;;
28304;SDS011;15569;42.652;23.040;2023-06-22T02:44:19;10.52;;;7.20;;
28304;SDS011;15569;42.652;23.040;2023-06-22T02:46:46;11.43;;;7.30;;
28304;SDS011;15569;42.652;23.040;2023-06-22T02:49:12;8.98;;;6.70;;
28304;SDS011;15569;42.652;23.040;2023-06-22T02:51:38;11.57;;;7.10;;
28304;SDS011;15569;42.652;23.040;2023-06-22T02:54:06;15.23;;;7.47;;
28304;SDS011;15569;42.652;23.040;2023-06-22T02:56:32;9.85;;;6.72;;
28304;SDS011;15569;42.652;23.040;2023-06-22T02:58:57;10.25;;;6.95;;
28304;SDS011;15569;42.652;23.040;2023-06-22T03:01:29;10.80;;;6.93;;
28304;SDS011;15569;42.652;23.040;2023-06-22T03:03:58;9.90;;;7.18;;
28304;SDS011;15569;42.652;23.040;2023-06-22T03:06:23;12.20;;;6.53;;
28304;SDS011;15569;42.652;23.040;2023-06-22T03:08:56;13.50;;;7.38;;
28304;SDS011;15569;42.652;23.040;2023-06-22T03:11:24;10.48;;;7.07;;
28304;SDS011;15569;42.652;23.040;2023-06-22T03:13:49;10.38;;;6.60;;
28304;SDS011;15569;42.652;23.040;2023-06-22T03:16:17;11.77;;;6.93;;
28304;SDS011;15569;42.652;23.040;2023-06-22T03:18:42;12.77;;;6.85;;
28304;SDS011;15569;42.652;23.040;2023-06-22T03:21:08;12.13;;;6.25;;
28304;SDS011;15569;42.652;23.040;2023-06-22T03:23:33;12.40;;;7.47;;
28304;SDS011;15569;42.652;23.040;2023-06-22T03:25:59;20.77;;;8.55;;
28304;SDS011;15569;42.652;23.040;2023-06-22T03:28:24;13.68;;;8.20;;
28304;SDS011;15569;42.652;23.040;2023-06-22T03:30:49;15.30;;;8.02;;
28304;SDS011;15569;42.652;23.040;2023-06-22T03:33:15;15.88;;;7.93;;
28304;SDS011;15569;42.652;23.040;2023-06-22T03:35:40;12.15;;;7.32;;
28304;SDS011;15569;42.652;23.040;2023-06-22T03:38:05;13.13;;;7.85;;
28304;SDS011;15569;42.652;23.040;2023-06-22T03:40:31;14.40;;;7.90;;
28304;SDS011;15569;42.652;23.040;2023-06-22T03:42:56;13.13;;;7.68;;
28304;SDS011;15569;42.652;23.040;2023-06-22T03:45:22;12.77;;;7.82;;
28304;SDS011;15569;42.652;23.040;2023-06-22T03:47:47;13.52;;;7.43;;
28304;SDS011;15569;42.652;23.040;2023-06-22T03:50:12;9.98;;;7.43;;
28304;SDS011;15569;42.652;23.040;2023-06-22T03:52:39;13.23;;;7.15;;
28304;SDS011;15569;42.652;23.040;2023-06-22T03:55:05;13.00;;;6.80;;
28304;SDS011;15569;42.652;23.040;2023-06-22T03:57:32;15.48;;;7.72;;
28304;SDS011;15569;42.652;23.040;2023-06-22T03:59:57;12.27;;;7.30;;
28304;SDS011;15569;42.652;23.040;2023-06-22T04:02:23;16.75;;;7.63;;
28304;SDS011;15569;42.652;23.040;2023-06-22T04:04:49;12.40;;;7.60;;
28304;SDS011;15569;42.652;23.040;2023-06-22T04:07:14;12.02;;;7.32;;
28304;SDS011;15569;42.652;23.040;2023-06-22T04:09:40;14.25;;;7.45;;
28304;SDS011;15569;42.652;23.040;2023-06-22T04:12:05;13.82;;;7.90;;
28304;SDS011;15569;42.652;23.040;2023-06-22T04:14:31;15.95;;;7.70;;
28304;SDS011;15569;42.652;23.040;2023-06-22T04:16:57;21.80;;;7.93;;
28304;SDS011;15569;42.652;23.040;2023-06-22T04:19:23;19.23;;;9.20;;
28304;SDS011;15569;42.652;23.040;2023-06-22T04:21:48;20.20;;;9.00;;
28304;SDS011;15569;42.652;23.040;2023-06-22T04:24:14;23.70;;;9.43;;
28304;SDS011;15569;42.652;23.040;2023-06-22T04:26:39;17.23;;;9.48;;
28304;SDS011;15569;42.652;23.040;2023-06-22T04:29:06;22.95;;;9.15;;
28304;SDS011;15569;42.652;23.040;2023-06-22T04:31:33;14.63;;;8.57;;
28304;SDS011;15569;42.652;23.040;2023-06-22T04:34:02;14.43;;;8.15;;
28304;SDS011;15569;42.652;23.040;2023-06-22T04:36:35;17.98;;;8.75;;
28304;SDS011;15569;42.652;23.040;2023-06-22T04:39:06;16.80;;;8.18;;
28304;SDS011;15569;42.652;23.040;2023-06-22T04:41:34;16.30;;;8.35;;
28304;SDS011;15569;42.652;23.040;2023-06-22T04:44:07;15.13;;;8.48;;
28304;SDS011;15569;42.652;23.040;2023-06-22T04:46:56;15.48;;;8.25;;
28304;SDS011;15569;42.652;23.040;2023-06-22T04:49:27;14.43;;;8.60;;
28304;SDS011;15569;42.652;23.040;2023-06-22T04:52:01;20.67;;;9.38;;
28304;SDS011;15569;42.652;23.040;2023-06-22T04:54:28;14.45;;;8.55;;
28304;SDS011;15569;42.652;23.040;2023-06-22T04:56:54;20.55;;;9.43;;
28304;SDS011;15569;42.652;23.040;2023-06-22T04:59:26;20.63;;;8.95;;
28304;SDS011;15569;42.652;23.040;2023-06-22T05:01:57;14.10;;;8.95;;
28304;SDS011;15569;42.652;23.040;2023-06-22T05:04:23;19.13;;;9.75;;
28304;SDS011;15569;42.652;23.040;2023-06-22T05:06:50;23.58;;;10.20;;
28304;SDS011;15569;42.652;23.040;2023-06-22T05:09:16;19.52;;;9.30;;
28304;SDS011;15569;42.652;23.040;2023-06-22T05:11:42;16.38;;;9.13;;
28304;SDS011;15569;42.652;23.040;2023-06-22T05:14:08;23.73;;;9.07;;
28304;SDS011;15569;42.652;23.040;2023-06-22T05:16:33;19.08;;;9.85;;
28304;SDS011;15569;42.652;23.040;2023-06-22T05:18:59;22.50;;;9.90;;
28304;SDS011;15569;42.652;23.040;2023-06-22T05:21:25;24.25;;;10.70;;
28304;SDS011;15569;42.652;23.040;2023-06-22T05:23:52;23.52;;;10.23;;
28304;SDS011;15569;42.652;23.040;2023-06-22T05:26:19;28.45;;;10.07;;
28304;SDS011;15569;42.652;23.040;2023-06-22T05:28:45;21.65;;;10.65;;
28304;SDS011;15569;42.652;23.040;2023-06-22T05:31:14;25.73;;;12.35;;
28304;SDS011;15569;42.652;23.040;2023-06-22T05:33:41;21.63;;;10.32;;
28304;SDS011;15569;42.652;23.040;2023-06-22T05:36:07;23.05;;;10.98;;
28304;SDS011;15569;42.652;23.040;2023-06-22T05:38:33;19.05;;;11.23;;
28304;SDS011;15569;42.652;23.040;2023-06-22T05:40:59;21.58;;;11.88;;
28304;SDS011;15569;42.652;23.040;2023-06-22T05:43:25;24.48;;;11.48;;
28304;SDS011;15569;42.652;23.040;2023-06-22T05:45:50;19.42;;;11.75;;
28304;SDS011;15569;42.652;23.040;2023-06-22T05:48:16;22.45;;;11.02;;
28304;SDS011;15569;42.652;23.040;2023-06-22T05:50:41;25.02;;;11.30;;
28304;SDS011;15569;42.652;23.040;2023-06-22T05:53:07;26.25;;;12.77;;
28304;SDS011;15569;42.652;23.040;2023-06-22T05:55:33;21.05;;;12.05;;
28304;SDS011;15569;42.652;23.040;2023-06-22T05:57:59;22.60;;;12.35;;
28304;SDS011;15569;42.652;23.040;2023-06-22T06:00:24;23.73;;;12.02;;
28304;SDS011;15569;42.652;23.040;2023-06-22T06:02:51;23.00;;;11.95;;
28304;SDS011;15569;42.652;23.040;2023-06-22T06:05:17;24.08;;;12.63;;
28304;SDS011;15569;42.652;23.040;2023-06-22T06:07:44;30.10;;;12.68;;
28304;SDS011;15569;42.652;23.040;2023-06-22T06:10:11;25.30;;;13.05;;
28304;SDS011;15569;42.652;23.040;2023-06-22T06:12:38;27.63;;;12.60;;
28304;SDS011;15569;42.652;23.040;2023-06-22T06:15:04;30.38;;;13.77;;
28304;SDS011;15569;42.652;23.040;2023-06-22T06:17:30;34.15;;;13.68;;
28304;SDS011;15569;42.652;23.040;2023-06-22T06:19:56;31.10;;;15.30;;
28304;SDS011;15569;42.652;23.040;2023-06-22T06:22:21;38.08;;;17.70;;
28304;SDS011;15569;42.652;23.040;2023-06-22T06:24:48;25.13;;;12.40;;
28304;SDS011;15569;42.652;23.040;2023-06-22T06:27:14;43.42;;;19.33;;
28304;SDS011;15569;42.652;23.040;2023-06-22T06:29:39;28.58;;;14.02;;
28304;SDS011;15569;42.652;23.040;2023-06-22T06:32:05;31.10;;;14.27;;
28304;SDS011;15569;42.652;23.040;2023-06-22T06:34:31;30.20;;;16.08;;
28304;SDS011;15569;42.652;23.040;2023-06-22T06:36:56;48.15;;;20.40;;
28304;SDS011;15569;42.652;23.040;2023-06-22T06:39:22;26.17;;;14.20;;
28304;SDS011;15569;42.652;23.040;2023-06-22T06:41:47;37.55;;;14.98;;
28304;SDS011;15569;42.652;23.040;2023-06-22T06:44:13;26.05;;;13.82;;
28304;SDS011;15569;42.652;23.040;2023-06-22T06:46:38;39.90;;;16.98;;
28304;SDS011;15569;42.652;23.040;2023-06-22T06:49:03;38.38;;;17.95;;
28304;SDS011;15569;42.652;23.040;2023-06-22T06:51:29;23.17;;;13.68;;
28304;SDS011;15569;42.652;23.040;2023-06-22T06:53:54;52.20;;;22.73;;
28304;SDS011;15569;42.652;23.040;2023-06-22T06:56:20;28.58;;;13.18;;
28304;SDS011;15569;42.652;23.040;2023-06-22T06:58:45;27.17;;;13.82;;
28304;SDS011;15569;42.652;23.040;2023-06-22T07:01:11;42.55;;;13.63;;
28304;SDS011;15569;42.652;23.040;2023-06-22T07:03:37;39.45;;;15.15;;
28304;SDS011;15569;42.652;23.040;2023-06-22T07:06:03;27.38;;;13.45;;
28304;SDS011;15569;42.652;23.040;2023-06-22T07:08:29;26.80;;;13.48;;
28304;SDS011;15569;42.652;23.040;2023-06-22T07:10:54;41.22;;;14.50;;
28304;SDS011;15569;42.652;23.040;2023-06-22T07:13:20;25.27;;;13.27;;
28304;SDS011;15569;42.652;23.040;2023-06-22T07:15:45;26.50;;;13.75;;
28304;SDS011;15569;42.652;23.040;2023-06-22T07:18:11;40.63;;;15.55;;
28304;SDS011;15569;42.652;23.040;2023-06-22T07:20:36;31.25;;;12.88;;
28304;SDS011;15569;42.652;23.040;2023-06-22T07:23:02;45.28;;;20.50;;
28304;SDS011;15569;42.652;23.040;2023-06-22T07:25:27;21.88;;;13.77;;
28304;SDS011;15569;42.652;23.040;2023-06-22T07:28:03;24.65;;;15.00;;
28304;SDS011;15569;42.652;23.040;2023-06-22T07:30:30;30.70;;;16.27;;
28304;SDS011;15569;42.652;23.040;2023-06-22T07:32:56;41.47;;;18.00;;
28304;SDS011;15569;42.652;23.040;2023-06-22T07:35:23;35.47;;;17.73;;
28304;SDS011;15569;42.652;23.040;2023-06-22T07:37:48;29.55;;;16.02;;
28304;SDS011;15569;42.652;23.040;2023-06-22T07:40:14;25.55;;;16.27;;
28304;SDS011;15569;42.652;23.040;2023-06-22T07:42:39;28.73;;;18.60;;
28304;SDS011;15569;42.652;23.040;2023-06-22T07:45:05;33.55;;;18.77;;
28304;SDS011;15569;42.652;23.040;2023-06-22T07:47:33;33.50;;;16.42;;
28304;SDS011;15569;42.652;23.040;2023-06-22T07:50:00;37.58;;;18.80;;
28304;SDS011;15569;42.652;23.040;2023-06-22T07:52:26;28.88;;;13.90;;
28304;SDS011;15569;42.652;23.040;2023-06-22T07:54:53;33.63;;;17.92;;
28304;SDS011;15569;42.652;23.040;2023-06-22T07:57:19;12.93;;;10.02;;
28304;SDS011;15569;42.652;23.040;2023-06-22T07:59:45;16.75;;;11.18;;
28304;SDS011;15569;42.652;23.040;2023-06-22T08:02:10;19.00;;;12.50;;
28304;SDS011;15569;42.652;23.040;2023-06-22T08:04:36;16.25;;;11.60;;
28304;SDS011;15569;42.652;23.040;2023-06-22T08:07:01;20.15;;;12.90;;
28304;SDS011;15569;42.652;23.040;2023-06-22T08:09:28;19.90;;;11.82;;
28304;SDS011;15569;42.652;23.040;2023-06-22T08:11:54;20.48;;;13.95;;
28304;SDS011;15569;42.652;23.040;2023-06-22T08:14:21;15.82;;;10.75;;
28304;SDS011;15569;42.652;23.040;2023-06-22T08:16:47;15.02;;;9.75;;
28304;SDS011;15569;42.652;23.040;2023-06-22T08:19:12;28.90;;;15.32;;
28304;SDS011;15569;42.652;23.040;2023-06-22T08:21:38;36.78;;;18.95;;
28304;SDS011;15569;42.652;23.040;2023-06-22T08:24:03;18.20;;;12.57;;
28304;SDS011;15569;42.652;23.040;2023-06-22T08:26:29;14.23;;;8.15;;
28304;SDS011;15569;42.652;23.040;2023-06-22T08:28:54;12.00;;;8.95;;
28304;SDS011;15569;42.652;23.040;2023-06-22T08:31:20;14.60;;;8.55;;
28304;SDS011;15569;42.652;23.040;2023-06-22T08:33:45;15.27;;;9.18;;
28304;SDS011;15569;42.652;23.040;2023-06-22T08:36:11;38.97;;;21.77;;
28304;SDS011;15569;42.652;23.040;2023-06-22T08:38:38;22.48;;;13.32;;
28304;SDS011;15569;42.652;23.040;2023-06-22T08:41:04;15.73;;;9.93;;
28304;SDS011;15569;42.652;23.040;2023-06-22T08:43:29;15.55;;;10.35;;
28304;SDS011;15569;42.652;23.040;2023-06-22T08:45:55;13.10;;;9.57;;
28304;SDS011;15569;42.652;23.040;2023-06-22T08:48:20;13.27;;;9.50;;
28304;SDS011;15569;42.652;23.040;2023-06-22T08:50:45;16.05;;;10.18;;
28304;SDS011;15569;42.652;23.040;2023-06-22T08:53:11;14.90;;;10.15;;
28304;SDS011;15569;42.652;23.040;2023-06-22T08:55:36;12.43;;;9.48;;
28304;SDS011;15569;42.652;23.040;2023-06-22T08:58:02;12.68;;;8.63;;
28304;SDS011;15569;42.652;23.040;2023-06-22T09:00:28;15.43;;;9.30;;
28304;SDS011;15569;42.652;23.040;2023-06-22T09:02:57;19.85;;;11.55;;
28304;SDS011;15569;42.652;23.040;2023-06-22T09:05:23;11.38;;;8.70;;
28304;SDS011;15569;42.652;23.040;2023-06-22T09:07:50;21.13;;;13.50;;
28304;SDS011;15569;42.652;23.040;2023-06-22T09:10:15;13.40;;;9.40;;
28304;SDS011;15569;42.652;23.040;2023-06-22T09:12:41;11.63;;;8.80;;
28304;SDS011;15569;42.652;23.040;2023-06-22T09:15:07;13.52;;;9.18;;
28304;SDS011;15569;42.652;23.040;2023-06-22T09:17:33;10.90;;;8.45;;
28304;SDS011;15569;42.652;23.040;2023-06-22T09:19:59;17.27;;;12.45;;
28304;SDS011;15569;42.652;23.040;2023-06-22T09:22:25;15.85;;;10.25;;
28304;SDS011;15569;42.652;23.040;2023-06-22T09:24:54;15.77;;;9.70;;
28304;SDS011;15569;42.652;23.040;2023-06-22T09:27:20;18.02;;;10.93;;
28304;SDS011;15569;42.652;23.040;2023-06-22T09:29:46;10.18;;;8.20;;
28304;SDS011;15569;42.652;23.040;2023-06-22T09:32:11;14.93;;;9.20;;
28304;SDS011;15569;42.652;23.040;2023-06-22T09:34:37;17.27;;;10.60;;
28304;SDS011;15569;42.652;23.040;2023-06-22T09:37:02;13.93;;;10.25;;
28304;SDS011;15569;42.652;23.040;2023-06-22T09:39:28;14.32;;;9.63;;
28304;SDS011;15569;42.652;23.040;2023-06-22T09:41:53;12.00;;;8.63;;
28304;SDS011;15569;42.652;23.040;2023-06-22T09:44:18;17.55;;;10.20;;
28304;SDS011;15569;42.652;23.040;2023-06-22T09:46:44;12.13;;;8.02;;
28304;SDS011;15569;42.652;23.040;2023-06-22T09:49:09;12.50;;;9.50;;
28304;SDS011;15569;42.652;23.040;2023-06-22T09:51:35;12.48;;;8.32;;
28304;SDS011;15569;42.652;23.040;2023-06-22T09:54:00;13.02;;;8.68;;
28304;SDS011;15569;42.652;23.040;2023-06-22T09:56:25;14.30;;;8.18;;
28304;SDS011;15569;42.652;23.040;2023-06-22T09:58:53;11.75;;;8.02;;
28304;SDS011;15569;42.652;23.040;2023-06-22T10:01:19;10.10;;;7.63;;
28304;SDS011;15569;42.652;23.040;2023-06-22T10:03:45;11.00;;;8.35;;
28304;SDS011;15569;42.652;23.040;2023-06-22T10:06:11;9.68;;;8.07;;
28304;SDS011;15569;42.652;23.040;2023-06-22T10:08:36;12.85;;;8.55;;
28304;SDS011;15569;42.652;23.040;2023-06-22T10:11:02;10.75;;;8.10;;
28304;SDS011;15569;42.652;23.040;2023-06-22T10:13:28;8.27;;;7.00;;
28304;SDS011;15569;42.652;23.040;2023-06-22T10:15:54;8.75;;;6.90;;
28304;SDS011;15569;42.652;23.040;2023-06-22T10:18:19;10.25;;;6.32;;
28304;SDS011;15569;42.652;23.040;2023-06-22T10:20:47;8.73;;;6.88;;
28304;SDS011;15569;42.652;23.040;2023-06-22T10:23:14;11.20;;;7.75;;
28304;SDS011;15569;42.652;23.040;2023-06-22T10:25:39;8.23;;;6.93;;
28304;SDS011;15569;42.652;23.040;2023-06-22T10:28:05;8.20;;;7.22;;
28304;SDS011;15569;42.652;23.040;2023-06-22T10:30:30;9.15;;;6.95;;
28304;SDS011;15569;42.652;23.040;2023-06-22T10:32:55;8.50;;;6.63;;
28304;SDS011;15569;42.652;23.040;2023-06-22T10:35:21;9.27;;;7.18;;
28304;SDS011;15569;42.652;23.040;2023-06-22T10:37:46;10.25;;;6.18;;
28304;SDS011;15569;42.652;23.040;2023-06-22T10:40:13;8.65;;;6.88;;
28304;SDS011;15569;42.652;23.040;2023-06-22T10:42:40;6.93;;;6.00;;
28304;SDS011;15569;42.652;23.040;2023-06-22T10:45:05;8.25;;;6.40;;
28304;SDS011;15569;42.652;23.040;2023-06-22T10:47:32;10.00;;;6.32;;
28304;SDS011;15569;42.652;23.040;2023-06-22T10:49:57;10.75;;;6.90;;
28304;SDS011;15569;42.652;23.040;2023-06-22T10:52:22;10.93;;;7.15;;
28304;SDS011;15569;42.652;23.040;2023-06-22T10:54:48;8.52;;;6.30;;
28304;SDS011;15569;42.652;23.040;2023-06-22T10:57:13;8.77;;;6.07;;
28304;SDS011;15569;42.652;23.040;2023-06-22T10:59:38;11.35;;;6.50;;
28304;SDS011;15569;42.652;23.040;2023-06-22T11:02:04;7.18;;;5.70;;
28304;SDS011;15569;42.652;23.040;2023-06-22T11:04:30;7.15;;;5.72;;
28304;SDS011;15569;42.652;23.040;2023-06-22T11:06:55;9.85;;;6.82;;
28304;SDS011;15569;42.652;23.040;2023-06-22T11:09:21;9.52;;;6.60;;
28304;SDS011;15569;42.652;23.040;2023-06-22T11:11:47;9.35;;;6.47;;
28304;SDS011;15569;42.652;23.040;2023-06-22T11:14:13;11.23;;;6.97;;
28304;SDS011;15569;42.652;23.040;2023-06-22T11:16:38;9.43;;;6.22;;
28304;SDS011;15569;42.652;23.040;2023-06-22T11:19:04;8.02;;;6.28;;
28304;SDS011;15569;42.652;23.040;2023-06-22T11:21:30;9.13;;;7.35;;
28304;SDS011;15569;42.652;23.040;2023-06-22T11:23:56;8.27;;;6.78;;
28304;SDS011;15569;42.652;23.040;2023-06-22T11:26:21;8.65;;;7.03;;
28304;SDS011;15569;42.652;23.040;2023-06-22T11:28:47;9.23;;;6.72;;
28304;SDS011;15569;42.652;23.040;2023-06-22T11:31:12;7.93;;;6.13;;
28304;SDS011;15569;42.652;23.040;2023-06-22T11:33:38;7.15;;;6.40;;
28304;SDS011;15569;42.652;23.040;2023-06-22T11:36:03;7.53;;;6.30;;
28304;SDS011;15569;42.652;23.040;2023-06-22T11:38:29;8.10;;;6.10;;
28304;SDS011;15569;42.652;23.040;2023-06-22T11:40:55;8.73;;;6.78;;
28304;SDS011;15569;42.652;23.040;2023-06-22T11:43:22;8.77;;;6.65;;
28304;SDS011;15569;42.652;23.040;2023-06-22T11:45:47;12.85;;;7.88;;
28304;SDS011;15569;42.652;23.040;2023-06-22T11:48:13;12.90;;;7.05;;
28304;SDS011;15569;42.652;23.040;2023-06-22T11:50:38;8.65;;;7.15;;
28304;SDS011;15569;42.652;23.040;2023-06-22T11:53:03;8.57;;;6.90;;
28304;SDS011;15569;42.652;23.040;2023-06-22T11:55:29;8.07;;;6.70;;
28304;SDS011;15569;42.652;23.040;2023-06-22T11:57:55;9.10;;;7.00;;
28304;SDS011;15569;42.652;23.040;2023-06-22T12:00:23;7.85;;;6.43;;
28304;SDS011;15569;42.652;23.040;2023-06-22T12:02:50;10.93;;;6.45;;
28304;SDS011;15569;42.652;23.040;2023-06-22T12:05:17;5.93;;;5.05;;
28304;SDS011;15569;42.652;23.040;2023-06-22T12:07:44;10.98;;;6.85;;
28304;SDS011;15569;42.652;23.040;2023-06-22T12:10:09;8.75;;;6.18;;
28304;SDS011;15569;42.652;23.040;2023-06-22T12:12:35;7.15;;;6.10;;
28304;SDS011;15569;42.652;23.040;2023-06-22T12:15:00;7.13;;;5.90;;
28304;SDS011;15569;42.652;23.040;2023-06-22T12:17:28;7.20;;;5.82;;
28304;SDS011;15569;42.652;23.040;2023-06-22T12:19:54;9.10;;;5.57;;
28304;SDS011;15569;42.652;23.040;2023-06-22T12:22:19;8.10;;;5.53;;
28304;SDS011;15569;42.652;23.040;2023-06-22T12:24:44;8.05;;;5.97;;
28304;SDS011;15569;42.652;23.040;2023-06-22T12:27:10;8.95;;;5.70;;
28304;SDS011;15569;42.652;23.040;2023-06-22T12:29:35;9.10;;;6.68;;
28304;SDS011;15569;42.652;23.040;2023-06-22T12:32:00;15.88;;;5.95;;
28304;SDS011;15569;42.652;23.040;2023-06-22T12:34:26;15.77;;;6.88;;
28304;SDS011;15569;42.652;23.040;2023-06-22T12:36:51;11.98;;;5.85;;
28304;SDS011;15569;42.652;23.040;2023-06-22T12:39:19;7.97;;;5.45;;
28304;SDS011;15569;42.652;23.040;2023-06-22T12:41:45;13.43;;;5.45;;
28304;SDS011;15569;42.652;23.040;2023-06-22T12:44:10;11.05;;;5.93;;
28304;SDS011;15569;42.652;23.040;2023-06-22T12:46:36;9.63;;;6.03;;
28304;SDS011;15569;42.652;23.040;2023-06-22T12:49:03;7.05;;;5.70;;
28304;SDS011;15569;42.652;23.040;2023-06-22T12:51:29;9.18;;;5.97;;
28304;SDS011;15569;42.652;23.040;2023-06-22T12:53:55;9.10;;;6.28;;
28304;SDS011;15569;42.652;23.040;2023-06-22T12:56:20;10.93;;;6.13;;
28304;SDS011;15569;42.652;23.040;2023-06-22T12:58:45;9.90;;;5.18;;
28304;SDS011;15569;42.652;23.040;2023-06-22T13:01:11;9.55;;;6.07;;
28304;SDS011;15569;42.652;23.040;2023-06-22T13:03:36;9.85;;;6.63;;
28304;SDS011;15569;42.652;23.040;2023-06-22T13:06:02;9.48;;;6.38;;
28304;SDS011;15569;42.652;23.040;2023-06-22T13:08:28;10.32;;;6.22;;
28304;SDS011;15569;42.652;23.040;2023-06-22T13:10:54;9.43;;;5.72;;
28304;SDS011;15569;42.652;23.040;2023-06-22T13:13:23;6.75;;;5.18;;
28304;SDS011;15569;42.652;23.040;2023-06-22T13:15:50;8.05;;;5.35;;
28304;SDS011;15569;42.652;23.040;2023-06-22T13:18:15;7.47;;;5.05;;
28304;SDS011;15569;42.652;23.040;2023-06-22T13:20:41;10.10;;;4.43;;
28304;SDS011;15569;42.652;23.040;2023-06-22T13:23:06;6.15;;;4.13;;
28304;SDS011;15569;42.652;23.040;2023-06-22T13:25:32;16.27;;;4.28;;
28304;SDS011;15569;42.652;23.040;2023-06-22T13:27:57;6.80;;;4.80;;
28304;SDS011;15569;42.652;23.040;2023-06-22T13:30:22;6.30;;;4.68;;
28304;SDS011;15569;42.652;23.040;2023-06-22T13:32:48;8.40;;;5.18;;
28304;SDS011;15569;42.652;23.040;2023-06-22T13:35:14;9.35;;;5.30;;
28304;SDS011;15569;42.652;23.040;2023-06-22T13:37:39;7.22;;;5.65;;
28304;SDS011;15569;42.652;23.040;2023-06-22T13:40:05;9.35;;;5.97;;
28304;SDS011;15569;42.652;23.040;2023-06-22T13:42:32;7.45;;;5.40;;
28304;SDS011;15569;42.652;23.040;2023-06-22T13:44:58;8.77;;;5.30;;
28304;SDS011;15569;42.652;23.040;2023-06-22T13:47:23;8.75;;;5.35;;
28304;SDS011;15569;42.652;23.040;2023-06-22T13:49:49;14.98;;;6.10;;
28304;SDS011;15569;42.652;23.040;2023-06-22T13:52:14;6.75;;;5.25;;
28304;SDS011;15569;42.652;23.040;2023-06-22T13:54:40;10.38;;;4.80;;
28304;SDS011;15569;42.652;23.040;2023-06-22T13:57:05;11.13;;;5.97;;
28304;SDS011;15569;42.652;23.040;2023-06-22T13:59:31;6.85;;;4.97;;
28304;SDS011;15569;42.652;23.040;2023-06-22T14:01:56;8.95;;;5.50;;
28304;SDS011;15569;42.652;23.040;2023-06-22T14:04:24;10.55;;;5.75;;
28304;SDS011;15569;42.652;23.040;2023-06-22T14:06:50;8.50;;;5.72;;
28304;SDS011;15569;42.652;23.040;2023-06-22T14:09:15;10.35;;;5.65;;
28304;SDS011;15569;42.652;23.040;2023-06-22T14:11:40;8.52;;;5.43;;
28304;SDS011;15569;42.652;23.040;2023-06-22T14:14:06;8.27;;;5.90;;
28304;SDS011;15569;42.652;23.040;2023-06-22T14:16:31;11.27;;;5.72;;
28304;SDS011;15569;42.652;23.040;2023-06-22T14:18:57;9.55;;;5.25;;
28304;SDS011;15569;42.652;23.040;2023-06-22T14:21:22;5.93;;;4.88;;